createdAt,value
2019-03-28T00:01:16.096Z,21.73
2019-03-28T00:03:50.225Z,22.80
2019-03-28T00:06:23.295Z,28.73
2019-03-28T00:08:55.465Z,27.37
2019-03-28T00:11:30.268Z,29.53
2019-03-28T00:14:02.261Z,30.07
2019-03-28T00:16:35.729Z,30.70
2019-03-28T00:19:09.280Z,25.60
2019-03-28T00:21:41.682Z,27.10
2019-03-28T00:24:33.228Z,33.50
2019-03-28T00:27:05.703Z,28.40
2019-03-28T00:29:39.274Z,32.20
2019-03-28T00:32:11.565Z,30.30
2019-03-28T00:34:44.214Z,34.77
2019-03-28T00:37:19.036Z,27.23
2019-03-28T00:39:55.137Z,29.03
2019-03-28T00:42:29.886Z,26.43
2019-03-28T00:45:02.490Z,31.20
2019-03-28T00:47:36.231Z,32.50
2019-03-28T00:50:09.628Z,27.50
2019-03-28T00:52:44.867Z,25.97
2019-03-28T00:55:17.364Z,26.93
2019-03-28T00:57:50.409Z,24.23
2019-03-28T01:00:22.929Z,27.90
2019-03-28T01:02:58.132Z,28.47
2019-03-28T01:05:32.501Z,27.10
2019-03-28T01:08:06.079Z,28.00
2019-03-28T01:10:38.553Z,25.07
2019-03-28T01:13:12.545Z,22.73
2019-03-28T01:15:44.420Z,28.80
2019-03-28T01:18:17.969Z,24.67
2019-03-28T01:20:51.223Z,23.40
2019-03-28T01:23:23.152Z,25.47
2019-03-28T01:25:55.743Z,23.70
2019-03-28T01:28:29.717Z,22.00
2019-03-28T01:31:02.726Z,23.33
2019-03-28T01:33:35.676Z,27.40
2019-03-28T01:36:08.657Z,22.70
2019-03-28T01:38:41.721Z,23.43
2019-03-28T01:41:14.606Z,25.60
2019-03-28T01:43:48.014Z,26.20
2019-03-28T01:46:22.694Z,29.10
2019-03-28T01:48:56.677Z,27.93
2019-03-28T01:51:29.749Z,21.60
2019-03-28T01:54:03.347Z,20.53
2019-03-28T01:56:36.786Z,16.63
2019-03-28T01:59:09.709Z,20.13
2019-03-28T02:01:43.722Z,19.93
2019-03-28T02:04:18.076Z,17.97
2019-03-28T02:06:51.020Z,20.27
2019-03-28T02:09:23.325Z,19.00
2019-03-28T02:11:56.745Z,21.63
2019-03-28T02:14:30.060Z,17.23
2019-03-28T02:17:03.816Z,20.13
2019-03-28T02:19:36.059Z,24.67
2019-03-28T02:22:09.975Z,23.47
2019-03-28T02:24:41.863Z,24.87
2019-03-28T02:27:23.984Z,20.67
2019-03-28T02:29:50.992Z,25.63
2019-03-28T02:32:23.816Z,26.13
2019-03-28T02:34:56.883Z,27.30
2019-03-28T02:37:30.547Z,25.70
2019-03-28T02:40:02.932Z,22.43
2019-03-28T02:42:36.987Z,25.53
2019-03-28T02:45:12.946Z,22.77
2019-03-28T02:47:46.315Z,22.50
2019-03-28T02:50:27.469Z,21.87
2019-03-28T02:53:00.810Z,26.20
2019-03-28T02:59:00.610Z,19.53
2019-03-28T03:01:34.845Z,24.67
2019-03-28T03:04:09.254Z,20.97
2019-03-28T03:06:44.595Z,20.07
2019-03-28T03:09:17.756Z,20.70
2019-03-28T03:11:51.123Z,19.00
2019-03-28T03:14:24.090Z,17.80
2019-03-28T03:16:59.745Z,24.93
2019-03-28T03:19:33.726Z,20.80
2019-03-28T03:22:06.109Z,22.30
2019-03-28T03:24:39.489Z,20.57
2019-03-28T03:27:14.231Z,22.70
2019-03-28T03:29:48.265Z,22.23
2019-03-28T03:32:21.097Z,20.60
2019-03-28T03:34:54.218Z,25.47
2019-03-28T03:37:29.869Z,23.63
2019-03-28T03:40:05.778Z,27.23
2019-03-28T03:42:38.426Z,27.27
2019-03-28T03:45:14.471Z,21.30
2019-03-28T03:47:48.117Z,29.27
2019-03-28T03:50:29.451Z,20.53
2019-03-28T03:53:03.203Z,21.13
2019-03-28T03:55:36.024Z,23.77
2019-03-28T03:58:15.980Z,25.77
2019-03-28T04:00:46.810Z,20.70
2019-03-28T04:03:21.979Z,20.27
2019-03-28T04:05:56.244Z,20.77
2019-03-28T04:08:30.912Z,21.33
2019-03-28T04:11:11.297Z,22.90
2019-03-28T04:13:44.276Z,19.57
2019-03-28T04:16:19.399Z,18.70
2019-03-28T04:18:52.285Z,20.80
2019-03-28T04:21:24.837Z,24.40
2019-03-28T04:24:00.850Z,23.50
2019-03-28T04:26:35.321Z,19.23
2019-03-28T04:29:09.270Z,23.53
2019-03-28T04:31:43.500Z,22.00
2019-03-28T04:34:17.698Z,19.20
2019-03-28T04:36:49.712Z,24.67
2019-03-28T04:39:23.369Z,23.03
2019-03-28T04:41:55.405Z,19.10
2019-03-28T04:44:29.392Z,20.53
2019-03-28T04:47:02.416Z,20.50
2019-03-28T04:49:35.611Z,19.23
2019-03-28T04:52:09.139Z,16.00
2019-03-28T04:54:41.665Z,16.87
2019-03-28T04:57:15.082Z,19.63
2019-03-28T04:59:47.536Z,21.90
2019-03-28T05:02:22.545Z,20.90
2019-03-28T05:04:58.096Z,19.60
2019-03-28T05:07:34.195Z,19.80
2019-03-28T05:10:08.177Z,18.87
2019-03-28T05:12:43.341Z,22.43
2019-03-28T05:15:20.142Z,19.20
2019-03-28T05:17:55.255Z,16.73
2019-03-28T05:20:29.762Z,16.80
2019-03-28T05:23:02.886Z,20.57
2019-03-28T05:25:35.762Z,22.90
2019-03-28T05:28:09.030Z,23.17
2019-03-28T05:30:41.770Z,18.90
2019-03-28T05:33:15.770Z,23.13
2019-03-28T05:35:47.653Z,23.07
2019-03-28T05:38:19.653Z,24.90
2019-03-28T05:40:53.956Z,16.10
2019-03-28T05:43:27.062Z,14.13
2019-03-28T05:46:00.842Z,17.67
2019-03-28T05:48:33.629Z,16.60
2019-03-28T05:51:07.665Z,19.20
2019-03-28T05:53:44.002Z,17.27
2019-03-28T05:56:18.189Z,24.47
2019-03-28T05:58:50.910Z,17.90
2019-03-28T06:01:23.408Z,18.73
2019-03-28T06:03:58.675Z,18.13
2019-03-28T06:06:33.001Z,17.10
2019-03-28T06:09:08.318Z,15.20
2019-03-28T06:11:41.948Z,13.80
2019-03-28T06:14:14.964Z,14.50
2019-03-28T06:16:48.870Z,18.67
2019-03-28T06:19:20.821Z,15.47
2019-03-28T06:21:53.826Z,16.20
2019-03-28T06:24:27.269Z,17.33
2019-03-28T06:27:01.908Z,17.20
2019-03-28T06:29:36.336Z,18.50
2019-03-28T06:32:08.880Z,20.53
2019-03-28T06:34:42.050Z,21.63
2019-03-28T06:37:15.039Z,17.67
2019-03-28T06:39:47.838Z,26.70
2019-03-28T06:42:20.895Z,15.53
2019-03-28T06:44:53.947Z,16.90
2019-03-28T06:47:28.594Z,12.63
2019-03-28T06:50:02.455Z,20.70
2019-03-28T06:52:37.774Z,19.47
2019-03-28T06:55:10.327Z,27.70
2019-03-28T06:57:46.938Z,24.47
2019-03-28T07:00:20.195Z,19.63
2019-03-28T07:02:52.716Z,19.50
2019-03-28T07:05:27.000Z,21.33
2019-03-28T07:08:02.770Z,19.73
2019-03-28T07:10:36.824Z,18.50
2019-03-28T07:13:12.608Z,22.97
2019-03-28T07:15:46.638Z,18.27
2019-03-28T07:18:20.336Z,14.27
2019-03-28T07:20:54.119Z,15.90
2019-03-28T07:23:27.108Z,13.20
2019-03-28T07:26:02.728Z,12.20
2019-03-28T07:28:37.845Z,14.00
2019-03-28T07:31:13.156Z,21.97
2019-03-28T07:33:46.478Z,14.93
2019-03-28T07:36:18.926Z,15.03
2019-03-28T07:38:51.987Z,13.97
2019-03-28T07:41:25.414Z,16.50
2019-03-28T07:43:58.997Z,16.70
2019-03-28T07:46:34.218Z,14.57
2019-03-28T07:49:07.282Z,11.37
2019-03-28T07:51:41.171Z,17.60
2019-03-28T07:54:13.408Z,13.97
2019-03-28T07:56:47.198Z,15.90
2019-03-28T07:59:20.325Z,15.70
2019-03-28T08:01:53.141Z,10.50
2019-03-28T08:04:27.250Z,12.27
2019-03-28T08:07:01.638Z,13.70
2019-03-28T08:09:36.794Z,12.77
2019-03-28T08:12:21.846Z,14.80
2019-03-28T08:14:45.597Z,11.90
2019-03-28T08:17:22.369Z,16.43
2019-03-28T08:19:54.418Z,14.40
2019-03-28T08:22:29.638Z,13.63
2019-03-28T08:25:01.562Z,11.83
2019-03-28T08:27:35.275Z,20.93
2019-03-28T08:30:18.184Z,9.67
2019-03-28T08:32:45.783Z,12.30
2019-03-28T08:35:18.366Z,15.87
2019-03-28T08:37:51.481Z,11.73
2019-03-28T08:40:39.633Z,11.63
2019-03-28T08:43:12.361Z,11.27
2019-03-28T08:45:45.624Z,11.00
2019-03-28T08:48:19.012Z,13.50
2019-03-28T08:50:53.279Z,13.87
2019-03-28T08:53:27.447Z,13.67
2019-03-28T08:55:59.444Z,8.17
2019-03-28T08:58:38.026Z,8.93
2019-03-28T09:04:01.348Z,7.80
2019-03-28T09:06:34.983Z,9.03
2019-03-28T09:09:11.407Z,8.17
2019-03-28T09:11:46.535Z,7.33
2019-03-28T09:14:20.420Z,8.53
2019-03-28T09:16:55.472Z,8.53
2019-03-28T09:22:20.673Z,9.50
2019-03-28T09:24:54.772Z,8.53
2019-03-28T09:27:26.516Z,8.70
2019-03-28T09:30:00.654Z,5.63
2019-03-28T09:32:34.076Z,13.83
2019-03-28T09:35:08.694Z,10.70
2019-03-28T09:37:44.743Z,10.73
2019-03-28T09:40:18.482Z,7.43
2019-03-28T09:42:52.049Z,8.60
2019-03-28T09:45:23.988Z,6.70
2019-03-28T09:47:59.036Z,7.80
2019-03-28T09:50:33.804Z,13.70
2019-03-28T09:53:07.526Z,8.87
2019-03-28T09:55:43.062Z,5.67
2019-03-28T09:58:14.770Z,8.47
2019-03-28T10:01:01.615Z,6.20
2019-03-28T10:03:22.160Z,12.43
2019-03-28T10:05:55.890Z,11.50
2019-03-28T10:08:28.146Z,16.73
2019-03-28T10:11:02.943Z,11.60
2019-03-28T10:13:35.890Z,9.97
2019-03-28T10:16:09.977Z,9.40
2019-03-28T10:18:44.547Z,11.00
2019-03-28T10:21:18.878Z,6.07
2019-03-28T10:23:50.882Z,7.33
2019-03-28T10:26:23.783Z,7.90
2019-03-28T10:28:56.866Z,9.53
2019-03-28T10:31:29.999Z,8.83
2019-03-28T10:34:03.551Z,10.13
2019-03-28T10:36:38.642Z,9.03
2019-03-28T10:39:11.834Z,6.77
2019-03-28T10:41:44.087Z,8.80
2019-03-28T10:44:19.824Z,7.67
2019-03-28T10:46:54.147Z,9.33
2019-03-28T10:49:28.632Z,9.70
2019-03-28T10:52:03.965Z,6.67
2019-03-28T10:54:35.223Z,11.77
2019-03-28T10:57:13.485Z,9.13
2019-03-28T10:59:42.572Z,9.97
2019-03-28T11:02:17.237Z,16.10
2019-03-28T11:04:51.264Z,10.70
2019-03-28T11:07:23.045Z,11.10
2019-03-28T11:09:57.810Z,10.63
2019-03-28T11:12:30.362Z,15.40
2019-03-28T11:15:04.909Z,11.23
2019-03-28T11:17:39.284Z,12.83
2019-03-28T11:20:11.660Z,12.43
2019-03-28T11:22:47.322Z,10.50
2019-03-28T11:25:21.453Z,17.10
2019-03-28T11:27:55.976Z,10.93
2019-03-28T11:30:31.284Z,13.90
2019-03-28T11:33:06.529Z,15.33
2019-03-28T11:35:41.012Z,15.00
2019-03-28T11:38:15.022Z,14.27
2019-03-28T11:40:48.304Z,18.70
2019-03-28T11:43:22.590Z,20.67
2019-03-28T11:45:58.256Z,15.77
2019-03-28T11:48:30.411Z,10.17
2019-03-28T11:51:07.901Z,11.17
2019-03-28T11:53:42.291Z,11.30
2019-03-28T11:56:17.200Z,8.03
2019-03-28T11:58:49.339Z,8.10
2019-03-28T12:01:22.835Z,10.43
2019-03-28T12:03:57.921Z,8.03
2019-03-28T12:06:30.694Z,11.13
2019-03-28T12:09:04.585Z,8.60
2019-03-28T12:11:37.897Z,13.10
2019-03-28T12:14:12.308Z,8.63
2019-03-28T12:16:45.719Z,8.60
2019-03-28T12:19:22.130Z,9.23
2019-03-28T12:21:55.402Z,12.27
2019-03-28T12:24:27.344Z,9.43
2019-03-28T12:27:00.320Z,9.93
2019-03-28T12:29:35.946Z,8.60
2019-03-28T12:32:14.304Z,11.30
2019-03-28T12:34:43.763Z,13.07
2019-03-28T12:37:17.441Z,10.67
2019-03-28T12:39:52.011Z,9.10
2019-03-28T12:42:24.266Z,10.20
2019-03-28T12:44:57.620Z,10.00
2019-03-28T12:47:42.257Z,12.60
2019-03-28T12:50:08.643Z,7.93
2019-03-28T12:52:46.476Z,10.70
2019-03-28T12:55:20.456Z,10.53
2019-03-28T12:57:52.484Z,15.57
2019-03-28T13:00:35.963Z,12.70
2019-03-28T13:03:14.190Z,10.60
2019-03-28T13:05:49.825Z,21.33
2019-03-28T13:08:21.780Z,12.63
2019-03-28T13:10:54.788Z,19.47
2019-03-28T13:13:27.683Z,11.87
2019-03-28T13:16:02.123Z,16.13
2019-03-28T13:18:36.764Z,11.53
2019-03-28T13:21:13.891Z,10.50
2019-03-28T13:23:45.810Z,12.47
2019-03-28T13:26:18.567Z,25.50
2019-03-28T13:28:51.762Z,10.00
2019-03-28T13:31:23.953Z,15.60
2019-03-28T13:33:58.746Z,13.80
2019-03-28T13:36:32.805Z,12.37
2019-03-28T13:39:08.188Z,11.70
2019-03-28T13:41:44.424Z,10.70
2019-03-28T13:44:19.598Z,12.50
2019-03-28T13:46:52.783Z,14.93
2019-03-28T13:49:24.592Z,15.57
2019-03-28T13:51:59.057Z,14.87
2019-03-28T13:54:31.110Z,24.83
2019-03-28T13:57:05.610Z,11.27
2019-03-28T13:59:39.727Z,11.07
2019-03-28T14:02:13.765Z,12.40
2019-03-28T14:04:47.843Z,18.20
2019-03-28T14:07:22.853Z,11.93
2019-03-28T14:09:55.407Z,18.83
2019-03-28T14:12:27.949Z,12.33
2019-03-28T14:15:00.982Z,15.07
2019-03-28T14:17:35.070Z,11.43
2019-03-28T14:20:08.509Z,10.70
2019-03-28T14:22:46.161Z,9.70
2019-03-28T14:25:19.790Z,12.47
2019-03-28T14:27:52.217Z,10.40
2019-03-28T14:30:24.322Z,10.37
2019-03-28T14:33:10.652Z,12.27
2019-03-28T14:35:33.998Z,8.77
2019-03-28T14:38:06.995Z,9.50
2019-03-28T14:40:39.226Z,10.77
2019-03-28T14:43:14.558Z,9.57
2019-03-28T14:45:48.966Z,22.40
2019-03-28T14:48:22.358Z,16.40
2019-03-28T14:50:57.144Z,15.80
2019-03-28T14:53:31.216Z,22.93
2019-03-28T14:56:05.368Z,13.53
2019-03-28T14:58:42.023Z,14.50
2019-03-28T15:01:16.571Z,13.03
2019-03-28T15:03:51.972Z,17.10
2019-03-28T15:06:24.719Z,13.20
2019-03-28T15:09:00.894Z,15.40
2019-03-28T15:11:33.839Z,18.30
2019-03-28T15:14:07.091Z,17.33
2019-03-28T15:16:40.251Z,15.10
2019-03-28T15:19:13.552Z,18.30
2019-03-28T15:21:46.240Z,13.57
2019-03-28T15:24:22.078Z,12.37
2019-03-28T15:26:56.101Z,15.03
2019-03-28T15:29:29.066Z,13.70
2019-03-28T15:32:03.321Z,16.60
2019-03-28T15:34:36.281Z,12.10
2019-03-28T15:37:11.896Z,14.27
2019-03-28T15:39:44.263Z,11.60
2019-03-28T15:42:16.222Z,11.00
2019-03-28T15:44:51.049Z,10.17
2019-03-28T15:47:24.574Z,18.63
2019-03-28T15:49:58.361Z,16.00
2019-03-28T15:52:31.742Z,22.67
2019-03-28T15:55:07.546Z,15.80
2019-03-28T15:57:44.326Z,16.60
2019-03-28T16:00:18.888Z,20.77
2019-03-28T16:02:52.817Z,17.20
2019-03-28T16:05:24.698Z,12.40
2019-03-28T16:07:59.318Z,10.93
2019-03-28T16:10:33.296Z,11.67
2019-03-28T16:13:06.308Z,15.77
2019-03-28T16:15:39.473Z,19.63
2019-03-28T16:18:13.682Z,15.33
2019-03-28T16:20:53.271Z,18.60
2019-03-28T16:23:23.457Z,22.83
2019-03-28T16:25:57.375Z,16.53
2019-03-28T16:28:30.499Z,15.43
2019-03-28T16:31:03.459Z,18.10
2019-03-28T16:33:36.594Z,19.03
2019-03-28T16:36:09.555Z,19.10
2019-03-28T16:38:44.223Z,14.83
2019-03-28T16:41:16.567Z,36.20
2019-03-28T16:43:49.498Z,9.67
2019-03-28T16:46:21.490Z,15.93
2019-03-28T16:48:54.817Z,14.77
2019-03-28T16:51:27.689Z,16.60
2019-03-28T16:54:00.023Z,22.63
2019-03-28T16:56:33.666Z,13.63
2019-03-28T16:59:06.517Z,10.90
2019-03-28T17:01:40.288Z,20.83
2019-03-28T17:04:20.768Z,15.47
2019-03-28T17:06:47.600Z,9.70
2019-03-28T17:09:24.142Z,9.90
2019-03-28T17:11:57.575Z,6.50
2019-03-28T17:14:31.055Z,13.20
2019-03-28T17:17:03.848Z,13.40
2019-03-28T17:19:36.800Z,6.07
2019-03-28T17:22:09.696Z,5.20
2019-03-28T17:24:43.945Z,8.60
2019-03-28T17:27:17.722Z,10.47
2019-03-28T17:29:50.721Z,6.03
2019-03-28T17:32:22.672Z,6.40
2019-03-28T17:34:55.126Z,4.00
2019-03-28T17:37:27.909Z,4.03
2019-03-28T17:40:00.718Z,5.47
2019-03-28T17:42:33.739Z,5.23
2019-03-28T17:45:07.076Z,5.90
2019-03-28T17:47:40.418Z,8.00
2019-03-28T17:50:13.122Z,9.97
2019-03-28T17:52:46.649Z,5.93
2019-03-28T17:55:19.976Z,6.80
2019-03-28T17:57:53.940Z,5.47
2019-03-28T18:00:28.368Z,6.40
2019-03-28T18:03:09.206Z,5.20
2019-03-28T18:05:36.903Z,6.47
2019-03-28T18:08:09.890Z,4.13
2019-03-28T18:10:44.448Z,6.60
2019-03-28T18:13:18.763Z,9.03
2019-03-28T18:15:51.893Z,6.40
2019-03-28T18:22:03.764Z,4.77
2019-03-28T18:24:33.971Z,6.07
2019-03-28T18:27:06.140Z,6.80
2019-03-28T18:29:40.139Z,7.03
2019-03-28T18:32:12.983Z,6.87
2019-03-28T18:34:46.159Z,8.27
2019-03-28T18:37:20.590Z,8.03
2019-03-28T18:39:54.951Z,5.10
2019-03-28T18:42:28.610Z,9.17
2019-03-28T18:45:02.872Z,13.33
2019-03-28T18:47:37.135Z,8.83
2019-03-28T18:50:10.835Z,8.80
2019-03-28T18:52:44.847Z,10.33
2019-03-28T18:55:20.659Z,6.20
2019-03-28T18:57:52.406Z,5.70
2019-03-28T19:00:26.209Z,8.97
2019-03-28T19:02:59.583Z,10.37
2019-03-28T19:05:35.919Z,8.53
2019-03-28T19:08:10.679Z,9.37
2019-03-28T19:10:44.393Z,8.70
2019-03-28T19:13:16.222Z,8.83
2019-03-28T19:15:49.951Z,15.60
2019-03-28T19:18:22.084Z,11.30
2019-03-28T19:20:55.115Z,8.37
2019-03-28T19:23:28.261Z,11.60
2019-03-28T19:26:01.259Z,10.53
2019-03-28T19:28:34.234Z,15.07
2019-03-28T19:31:08.551Z,30.03
2019-03-28T19:33:43.933Z,27.10
2019-03-28T19:36:20.562Z,33.33
2019-03-28T19:38:56.984Z,32.27
2019-03-28T19:41:33.876Z,24.00
2019-03-28T19:44:09.925Z,14.80
2019-03-28T19:46:45.053Z,18.80
2019-03-28T19:49:17.740Z,14.80
2019-03-28T19:51:50.383Z,14.10
2019-03-28T19:54:23.385Z,12.90
2019-03-28T19:56:57.568Z,17.90
2019-03-28T19:59:31.397Z,14.00
2019-03-28T20:02:05.739Z,10.80
2019-03-28T20:05:22.858Z,12.03
2019-03-28T20:07:57.459Z,10.90
2019-03-28T20:10:31.801Z,15.27
2019-03-28T20:13:05.381Z,15.17
2019-03-28T20:15:40.384Z,14.63
2019-03-28T20:18:13.820Z,14.00
2019-03-28T20:20:46.931Z,15.00
2019-03-28T20:23:19.605Z,12.83
2019-03-28T20:25:52.417Z,15.20
2019-03-28T20:28:26.942Z,15.50
2019-03-28T20:30:59.583Z,15.30
2019-03-28T20:33:31.514Z,19.37
2019-03-28T20:36:24.631Z,17.30
2019-03-28T20:38:39.563Z,50.80
2019-03-28T20:41:14.814Z,56.57
2019-03-28T20:43:49.602Z,40.47
2019-03-28T20:46:21.717Z,29.73
2019-03-28T20:48:55.447Z,30.13
2019-03-28T20:51:28.540Z,26.80
2019-03-28T20:54:03.777Z,26.47
2019-03-28T20:56:38.470Z,22.77
2019-03-28T20:59:12.650Z,19.70
2019-03-28T21:01:48.037Z,23.60
2019-03-28T21:04:31.055Z,19.20
2019-03-28T21:06:57.860Z,15.63
2019-03-28T21:09:33.323Z,19.70
2019-03-28T21:12:07.735Z,20.00
2019-03-28T21:14:41.705Z,20.27
2019-03-28T21:17:14.650Z,21.27
2019-03-28T21:19:47.805Z,24.00
2019-03-28T21:22:20.771Z,22.30
2019-03-28T21:24:56.202Z,22.70
2019-03-28T21:27:30.894Z,23.30
2019-03-28T21:30:04.084Z,23.70
2019-03-28T21:32:38.244Z,21.37
2019-03-28T21:35:14.497Z,24.57
2019-03-28T21:37:48.784Z,24.10
2019-03-28T21:40:21.786Z,23.53
2019-03-28T21:42:54.725Z,21.33
2019-03-28T21:45:27.905Z,23.07
2019-03-28T21:48:01.877Z,22.87
2019-03-28T21:50:34.853Z,23.03
2019-03-28T21:53:11.819Z,23.30
2019-03-28T21:55:55.184Z,40.40
2019-03-28T21:58:23.086Z,41.33
2019-03-28T22:00:56.023Z,36.73
2019-03-28T22:03:28.157Z,32.60
2019-03-28T22:06:02.567Z,38.73
2019-03-28T22:08:36.892Z,29.77
2019-03-28T22:11:09.862Z,28.17
2019-03-28T22:13:42.856Z,25.73
2019-03-28T22:16:17.252Z,24.30
2019-03-28T22:18:49.027Z,26.43
2019-03-28T22:21:23.637Z,26.37
2019-03-28T22:23:56.240Z,30.87
2019-03-28T22:26:28.009Z,29.30
2019-03-28T22:29:02.147Z,24.53
2019-03-28T22:31:35.488Z,26.90
2019-03-28T22:34:10.172Z,28.50
2019-03-28T22:36:57.131Z,24.57
2019-03-28T22:42:55.227Z,28.20
2019-03-28T22:45:26.974Z,27.77
2019-03-28T22:48:10.566Z,26.50
2019-03-28T22:50:38.663Z,25.47
2019-03-28T22:53:14.737Z,28.07
2019-03-28T22:55:49.137Z,28.77
2019-03-28T22:58:24.819Z,27.07
2019-03-28T23:00:59.474Z,23.60
2019-03-28T23:03:34.361Z,28.67
2019-03-28T23:06:07.641Z,25.37
2019-03-28T23:08:40.232Z,25.80
2019-03-28T23:11:13.938Z,25.07
2019-03-28T23:13:46.492Z,26.17
2019-03-28T23:16:19.185Z,22.63
2019-03-28T23:18:52.598Z,30.23
2019-03-28T23:21:24.973Z,37.17
2019-03-28T23:23:58.269Z,31.47
2019-03-28T23:26:31.291Z,36.53
2019-03-28T23:29:04.269Z,38.73
2019-03-28T23:31:38.320Z,41.87
2019-03-28T23:34:10.944Z,42.40
2019-03-28T23:36:43.895Z,31.77
2019-03-28T23:39:16.561Z,30.77
2019-03-28T23:41:50.001Z,26.53
2019-03-28T23:44:23.311Z,29.77
2019-03-28T23:46:55.269Z,29.13
2019-03-28T23:49:28.636Z,26.40
2019-03-28T23:52:02.410Z,23.10
2019-03-28T23:54:35.645Z,22.10
2019-03-28T23:57:10.340Z,28.10
2019-03-28T23:59:42.842Z,24.60
